Time;durP1;ratioP1;P1;durP2;ratioP2;P2;SDS_P1;SDS_P2;PMS_P1;PMS_P2;Temp;Humidity;BMP_temperature;BMP_pressure;BME280_temperature;BME280_humidity;BME280_pressure;Samples;Min_cycle;Max_cycle;Signal;HPM_P1;HPM_P2
2023/07/27 00:01:28;;;;;;;5.18;2.40;;;16.50;99.90;;;;;;4996914;28;20505;-52
2023/07/27 00:03:54;;;;;;;4.68;2.47;;;16.40;99.90;;;;;;4996855;28;20425;-53
2023/07/27 00:06:20;;;;;;;7.53;2.58;;;16.40;99.90;;;;;;4996801;28;20449;-53
2023/07/27 00:08:46;;;;;;;4.88;2.25;;;16.40;99.90;;;;;;4997028;28;20030;-53
2023/07/27 00:11:12;;;;;;;6.90;3.10;;;16.50;99.90;;;;;;4996987;28;20068;-53
2023/07/27 00:13:37;;;;;;;4.68;2.38;;;16.50;99.90;;;;;;4996264;28;20030;-53
2023/07/27 00:16:03;;;;;;;4.20;2.00;;;16.40;99.90;;;;;;4996792;28;20541;-50
2023/07/27 00:18:29;;;;;;;5.15;2.40;;;16.50;99.90;;;;;;4995440;28;20073;-53
2023/07/27 00:20:54;;;;;;;6.50;3.05;;;16.50;99.90;;;;;;4997037;28;20034;-52
2023/07/27 00:23:20;;;;;;;5.78;2.65;;;16.50;99.90;;;;;;4995943;28;20027;-49
2023/07/27 00:25:45;;;;;;;4.68;2.40;;;16.60;99.90;;;;;;4996932;28;20077;-51
2023/07/27 00:28:11;;;;;;;7.00;2.42;;;16.70;99.90;;;;;;4996570;28;20084;-52
2023/07/27 00:30:37;;;;;;;6.57;2.78;;;16.70;99.90;;;;;;4996404;28;20029;-52
2023/07/27 00:33:02;;;;;;;4.75;2.38;;;16.70;99.90;;;;;;4995414;28;20068;-53
2023/07/27 00:35:28;;;;;;;6.25;2.47;;;16.70;99.90;;;;;;4996777;28;20034;-49
2023/07/27 00:37:53;;;;;;;4.82;2.22;;;16.70;99.90;;;;;;4996211;28;20049;-50
2023/07/27 00:40:19;;;;;;;4.05;2.47;;;16.70;99.90;;;;;;4995074;28;20395;-52
2023/07/27 00:42:45;;;;;;;5.68;2.42;;;16.70;99.90;;;;;;4994241;28;20395;-53
2023/07/27 00:45:10;;;;;;;4.30;2.45;;;16.70;99.90;;;;;;4995883;28;20427;-49
2023/07/27 00:47:36;;;;;;;5.75;2.63;;;16.70;99.90;;;;;;4995234;28;20030;-50
2023/07/27 00:50:02;;;;;;;5.95;2.50;;;16.80;99.90;;;;;;4996280;28;20109;-53
2023/07/27 00:52:28;;;;;;;6.50;2.40;;;16.80;99.90;;;;;;4995724;28;20079;-51
2023/07/27 00:54:55;;;;;;;4.68;2.50;;;16.80;99.90;;;;;;4978722;28;20038;-49
2023/07/27 00:57:21;;;;;;;4.05;2.03;;;16.90;99.90;;;;;;4994396;28;20058;-52
2023/07/27 00:59:47;;;;;;;3.53;1.90;;;17.00;99.90;;;;;;4995373;28;20066;-53
2023/07/27 01:02:13;;;;;;;7.32;2.38;;;17.00;99.90;;;;;;4995676;28;20034;-53
2023/07/27 01:04:39;;;;;;;5.53;2.20;;;16.90;99.90;;;;;;4993996;28;20042;-53
2023/07/27 01:07:05;;;;;;;4.45;3.22;;;16.90;99.90;;;;;;4996091;28;20029;-52
2023/07/27 01:09:31;;;;;;;5.95;2.22;;;16.90;99.90;;;;;;4978268;28;20096;-52
2023/07/27 01:12:23;;;;;;;5.65;2.42;;;16.90;99.90;;;;;;4995282;28;20027;-53
2023/07/27 01:15:07;;;;;;;8.10;2.45;;;16.90;99.90;;;;;;4995679;28;20486;-51
2023/07/27 01:17:36;;;;;;;7.30;2.70;;;16.90;99.90;;;;;;4991385;28;20038;-50
2023/07/27 01:20:05;;;;;;;3.50;2.00;;;16.90;99.90;;;;;;4974676;28;20030;-52
2023/07/27 01:22:31;;;;;;;6.85;2.00;;;16.90;99.90;;;;;;4975886;28;20373;-53
2023/07/27 01:25:15;;;;;;;6.07;2.50;;;16.90;99.90;;;;;;4975874;28;20121;-52
2023/07/27 01:28:06;;;;;;;3.38;1.80;;;17.00;99.90;;;;;;4994101;28;20129;-53
2023/07/27 01:30:57;;;;;;;3.35;1.90;;;17.00;99.90;;;;;;4994089;28;20026;-53
2023/07/27 01:33:32;;;;;;;5.40;2.20;;;17.00;99.90;;;;;;4994932;28;20018;-52
2023/07/27 01:36:00;;;;;;;6.55;2.22;;;17.00;99.90;;;;;;4995425;28;20052;-49
2023/07/27 01:38:27;;;;;;;5.13;1.85;;;17.10;99.90;;;;;;4994010;28;20050;-50
2023/07/27 01:40:54;;;;;;;5.28;2.22;;;17.10;99.90;;;;;;4993812;28;20042;-53
2023/07/27 01:43:21;;;;;;;5.20;2.00;;;17.10;99.90;;;;;;4993638;28;20088;-52
2023/07/27 01:45:47;;;;;;;5.03;2.00;;;17.10;99.90;;;;;;4993757;28;20125;-52
2023/07/27 01:48:17;;;;;;;5.55;2.28;;;17.20;99.90;;;;;;4994275;28;20038;-52
2023/07/27 01:50:44;;;;;;;3.80;2.30;;;17.20;99.90;;;;;;4994042;28;20041;-53
2023/07/27 01:53:11;;;;;;;4.40;1.95;;;17.20;99.90;;;;;;4992953;28;20073;-51
2023/07/27 01:55:39;;;;;;;3.58;1.90;;;17.10;99.90;;;;;;4993478;28;20037;-53
2023/07/27 01:58:05;;;;;;;4.78;1.80;;;17.00;99.90;;;;;;4993613;28;20053;-52
2023/07/27 02:00:31;;;;;;;4.82;1.88;;;17.00;99.90;;;;;;4993470;28;20057;-52
2023/07/27 02:02:58;;;;;;;5.05;2.00;;;17.00;99.90;;;;;;4994929;28;20038;-54
2023/07/27 02:05:24;;;;;;;4.95;2.35;;;17.00;99.90;;;;;;4994409;28;20042;-53
2023/07/27 02:07:50;;;;;;;6.63;2.30;;;17.00;99.90;;;;;;4993485;28;20181;-53
2023/07/27 02:10:18;;;;;;;5.15;1.83;;;16.90;99.90;;;;;;4993460;28;20041;-52
2023/07/27 02:12:55;;;;;;;3.83;2.05;;;16.80;99.90;;;;;;4994710;28;20113;-53
2023/07/27 02:15:25;;;;;;;3.95;1.92;;;16.70;99.90;;;;;;4992893;28;20117;-53
2023/07/27 02:18:04;;;;;;;3.50;1.52;;;16.70;99.90;;;;;;4993620;28;20376;-53
2023/07/27 02:20:34;;;;;;;4.10;2.20;;;16.60;99.90;;;;;;4993074;28;20062;-53
2023/07/27 02:23:02;;;;;;;5.13;1.98;;;16.50;99.90;;;;;;4992314;28;20034;-53
2023/07/27 02:25:31;;;;;;;4.47;1.90;;;16.50;99.90;;;;;;4993036;28;20041;-52
2023/07/27 02:27:56;;;;;;;3.45;1.80;;;16.40;99.90;;;;;;4994622;28;20093;-52
2023/07/27 02:30:22;;;;;;;3.58;2.08;;;16.40;99.90;;;;;;4993155;28;20023;-53
2023/07/27 02:32:48;;;;;;;3.42;2.05;;;16.30;99.90;;;;;;4994496;28;20404;-53
2023/07/27 02:35:13;;;;;;;4.22;2.10;;;16.30;99.90;;;;;;4992868;28;20513;-53
2023/07/27 02:37:41;;;;;;;3.30;1.70;;;16.30;99.90;;;;;;4992909;28;20031;-52
2023/07/27 02:40:08;;;;;;;6.03;2.35;;;16.30;99.90;;;;;;4993337;28;20121;-52
2023/07/27 02:42:34;;;;;;;4.43;2.00;;;16.30;99.90;;;;;;4989912;28;20077;-53
2023/07/27 02:44:59;;;;;;;4.93;2.30;;;16.20;99.90;;;;;;4988091;28;20472;-53
2023/07/27 02:47:29;;;;;;;5.88;2.35;;;16.10;99.90;;;;;;4993074;28;20027;-53
2023/07/27 02:49:55;;;;;;;3.78;1.80;;;16.10;99.90;;;;;;4994122;28;20077;-53
2023/07/27 02:52:21;;;;;;;5.00;2.15;;;16.00;99.90;;;;;;4992426;28;20073;-52
2023/07/27 02:54:47;;;;;;;4.72;2.13;;;16.00;99.90;;;;;;4993082;28;20026;-52
2023/07/27 02:57:16;;;;;;;4.47;2.13;;;15.90;99.90;;;;;;4993153;28;20072;-53
2023/07/27 02:59:45;;;;;;;4.68;2.13;;;15.90;99.90;;;;;;4992707;28;20038;-53
2023/07/27 03:02:11;;;;;;;4.05;2.13;;;15.90;99.90;;;;;;4991357;28;20511;-53
2023/07/27 03:04:40;;;;;;;4.82;2.28;;;15.80;99.90;;;;;;4992654;28;20057;-53
2023/07/27 03:07:08;;;;;;;4.32;2.30;;;15.80;99.90;;;;;;4992897;28;20031;-50
2023/07/27 03:09:34;;;;;;;8.00;2.30;;;15.80;99.90;;;;;;4992597;28;20037;-53
2023/07/27 03:11:59;;;;;;;4.68;2.28;;;15.70;99.90;;;;;;4989773;28;20019;-50
2023/07/27 03:14:25;;;;;;;5.05;2.42;;;15.60;99.90;;;;;;4990596;28;20050;-52
2023/07/27 03:16:50;;;;;;;5.35;2.05;;;15.50;99.90;;;;;;4981449;28;20038;-51
2023/07/27 03:19:16;;;;;;;6.03;2.20;;;15.50;99.90;;;;;;4985568;28;20019;-53
2023/07/27 03:21:42;;;;;;;5.47;2.50;;;15.50;99.90;;;;;;4990298;28;20022;-50
2023/07/27 03:24:07;;;;;;;4.93;2.40;;;15.50;99.90;;;;;;4990501;28;20150;-52
2023/07/27 03:26:33;;;;;;;4.95;2.20;;;15.50;99.90;;;;;;4991148;28;20026;-51
2023/07/27 03:28:59;;;;;;;5.97;2.60;;;15.40;99.90;;;;;;4988166;28;20031;-53
2023/07/27 03:31:28;;;;;;;5.03;2.25;;;15.40;99.90;;;;;;4994561;28;20029;-52
2023/07/27 03:33:54;;;;;;;5.15;2.40;;;15.40;99.90;;;;;;4993647;28;20106;-49
2023/07/27 03:36:20;;;;;;;4.57;2.42;;;15.40;99.90;;;;;;4999371;28;20417;-53
2023/07/27 03:38:47;;;;;;;4.97;2.42;;;15.40;99.90;;;;;;5004750;28;20026;-52
2023/07/27 03:41:13;;;;;;;4.75;2.70;;;15.30;99.90;;;;;;5012556;28;20029;-51
2023/07/27 03:43:39;;;;;;;4.10;2.45;;;15.30;99.90;;;;;;4998076;28;20034;-52
2023/07/27 03:46:05;;;;;;;4.78;2.58;;;15.20;99.90;;;;;;5003046;28;20045;-52
2023/07/27 03:48:31;;;;;;;5.05;2.42;;;15.20;99.90;;;;;;5007413;28;20169;-51
2023/07/27 03:51:00;;;;;;;3.95;2.35;;;15.20;99.90;;;;;;4992592;28;20030;-51
2023/07/27 03:53:27;;;;;;;7.32;2.58;;;15.20;99.90;;;;;;4991146;28;20038;-53
2023/07/27 03:55:53;;;;;;;5.38;2.30;;;15.20;99.90;;;;;;4990968;28;20041;-51
2023/07/27 03:58:19;;;;;;;7.40;2.25;;;15.20;99.90;;;;;;4991794;28;20034;-51
2023/07/27 04:00:44;;;;;;;4.72;2.53;;;15.10;99.90;;;;;;4998973;28;20030;-53
2023/07/27 04:03:10;;;;;;;4.38;2.35;;;15.10;99.90;;;;;;4994243;28;20109;-50
2023/07/27 04:05:36;;;;;;;4.65;2.67;;;15.10;99.90;;;;;;4994380;28;20031;-51
2023/07/27 04:08:01;;;;;;;5.32;2.50;;;15.00;99.90;;;;;;4997103;28;20409;-51
2023/07/27 04:10:29;;;;;;;7.07;2.90;;;14.90;99.90;;;;;;4997644;28;20025;-48
2023/07/27 04:12:55;;;;;;;5.65;2.33;;;14.90;99.90;;;;;;4996396;28;20114;-50
2023/07/27 04:15:21;;;;;;;5.45;2.50;;;14.90;99.90;;;;;;5004031;28;20041;-51
2023/07/27 04:17:47;;;;;;;4.38;2.50;;;14.90;99.90;;;;;;4993347;28;20034;-51
2023/07/27 04:20:12;;;;;;;6.38;3.20;;;14.80;99.90;;;;;;4993126;28;20054;-50
2023/07/27 04:22:38;;;;;;;6.32;2.85;;;14.80;99.90;;;;;;4999714;28;20041;-49
2023/07/27 04:25:04;;;;;;;6.07;3.00;;;14.80;99.90;;;;;;5006086;28;20035;-53
2023/07/27 04:27:30;;;;;;;5.00;2.92;;;14.70;99.90;;;;;;5001209;28;20105;-53
2023/07/27 04:29:55;;;;;;;5.35;2.60;;;14.70;99.90;;;;;;4996834;28;20053;-52
2023/07/27 04:32:21;;;;;;;5.80;2.50;;;14.70;99.90;;;;;;4995371;28;20034;-52
2023/07/27 04:34:47;;;;;;;7.40;3.40;;;14.70;99.90;;;;;;4994320;28;20030;-51
2023/07/27 04:37:12;;;;;;;6.15;3.03;;;14.60;99.90;;;;;;4989151;28;20099;-53
2023/07/27 04:39:38;;;;;;;7.40;2.92;;;14.60;99.90;;;;;;4993562;28;20061;-52
2023/07/27 04:42:04;;;;;;;8.70;3.55;;;14.60;99.90;;;;;;5003896;28;20029;-51
2023/07/27 04:44:30;;;;;;;7.65;3.13;;;14.60;99.90;;;;;;5011178;28;20451;-53
2023/07/27 04:46:55;;;;;;;5.32;3.13;;;14.50;99.90;;;;;;4999195;28;20102;-51
2023/07/27 04:49:21;;;;;;;6.43;3.05;;;14.50;99.90;;;;;;5002333;28;20398;-51
2023/07/27 04:51:46;;;;;;;8.15;3.13;;;14.50;99.90;;;;;;5002590;28;20042;-53
2023/07/27 04:54:12;;;;;;;6.53;3.22;;;14.50;99.90;;;;;;4997470;28;20032;-53
2023/07/27 04:56:38;;;;;;;6.28;3.20;;;14.50;99.90;;;;;;4991673;28;20038;-54
2023/07/27 04:59:03;;;;;;;7.25;2.92;;;14.50;99.90;;;;;;5001181;28;20916;-52
2023/07/27 05:01:29;;;;;;;7.53;4.07;;;14.50;99.90;;;;;;4994321;28;20374;-52
2023/07/27 05:03:55;;;;;;;6.95;3.60;;;14.50;99.90;;;;;;4996293;28;20054;-51
2023/07/27 05:06:20;;;;;;;6.43;2.88;;;14.50;99.90;;;;;;4996399;28;20436;-53
2023/07/27 05:08:46;;;;;;;8.65;3.22;;;14.50;99.90;;;;;;5013057;28;20073;-53
2023/07/27 05:11:12;;;;;;;7.50;3.20;;;14.50;99.90;;;;;;5005475;28;20029;-52
2023/07/27 05:13:37;;;;;;;5.55;3.05;;;14.50;99.90;;;;;;5004734;28;20026;-52
2023/07/27 05:16:03;;;;;;;6.43;3.28;;;14.50;99.90;;;;;;5010515;28;20034;-52
2023/07/27 05:18:29;;;;;;;10.52;5.30;;;14.50;99.90;;;;;;4998960;28;20022;-51
2023/07/27 05:20:57;;;;;;;6.70;3.53;;;14.50;99.90;;;;;;4998888;28;20030;-50
2023/07/27 05:23:23;;;;;;;10.93;5.53;;;14.40;99.90;;;;;;4992332;28;20076;-53
2023/07/27 05:25:49;;;;;;;7.20;3.50;;;14.40;99.90;;;;;;4997730;28;20116;-50
2023/07/27 05:28:15;;;;;;;7.45;3.60;;;14.50;99.90;;;;;;5002270;28;20038;-51
2023/07/27 05:30:41;;;;;;;7.03;3.58;;;14.40;99.90;;;;;;4998338;28;20041;-52
2023/07/27 05:33:07;;;;;;;4.63;2.35;;;14.50;99.90;;;;;;4998849;28;20026;-48
2023/07/27 05:35:33;;;;;;;5.20;2.90;;;14.50;99.90;;;;;;5003839;28;20487;-52
2023/07/27 05:37:58;;;;;;;6.70;3.15;;;14.40;99.90;;;;;;4996872;28;20042;-51
2023/07/27 05:40:24;;;;;;;6.15;3.47;;;14.40;99.90;;;;;;4987472;28;20030;-49
2023/07/27 05:42:50;;;;;;;9.75;3.03;;;14.40;99.90;;;;;;5000597;28;20034;-47
2023/07/27 05:45:15;;;;;;;5.72;3.05;;;14.50;99.90;;;;;;5005428;28;20054;-49
2023/07/27 05:47:41;;;;;;;5.25;2.75;;;14.40;99.90;;;;;;5007571;28;20037;-49
2023/07/27 05:50:08;;;;;;;5.45;2.55;;;14.40;99.90;;;;;;5004456;28;20034;-52
2023/07/27 05:52:34;;;;;;;5.95;2.88;;;14.40;99.90;;;;;;4997994;28;20037;-49
2023/07/27 05:55:00;;;;;;;6.28;3.05;;;14.40;99.90;;;;;;5001578;28;20047;-49
2023/07/27 05:57:25;;;;;;;4.45;2.30;;;14.40;99.90;;;;;;4990658;28;20018;-49
2023/07/27 05:59:51;;;;;;;7.03;3.28;;;14.40;99.90;;;;;;5005114;28;20026;-53
2023/07/27 06:02:16;;;;;;;6.05;2.85;;;14.50;99.90;;;;;;4996893;28;20026;-50
2023/07/27 06:04:42;;;;;;;5.35;2.80;;;14.50;99.90;;;;;;5000844;28;20025;-49
2023/07/27 06:07:08;;;;;;;6.22;2.50;;;14.50;99.90;;;;;;5008555;28;20113;-48
2023/07/27 06:09:36;;;;;;;9.43;3.20;;;14.50;99.90;;;;;;5001439;28;20121;-50
2023/07/27 06:12:10;;;;;;;5.72;2.65;;;14.50;99.90;;;;;;5000686;28;20030;-53
2023/07/27 06:14:35;;;;;;;9.27;3.03;;;14.60;99.90;;;;;;5000586;28;20042;-50
2023/07/27 06:17:01;;;;;;;5.97;3.08;;;14.50;99.90;;;;;;5002707;28;20038;-49
2023/07/27 06:19:27;;;;;;;8.32;3.58;;;14.60;99.90;;;;;;5004328;28;20030;-51
2023/07/27 06:21:53;;;;;;;7.32;3.15;;;14.50;99.90;;;;;;5007525;28;20053;-48
2023/07/27 06:24:20;;;;;;;7.30;3.20;;;14.60;99.90;;;;;;5005064;28;20130;-48
2023/07/27 06:26:45;;;;;;;5.10;3.25;;;14.60;99.90;;;;;;5005069;28;20061;-48
2023/07/27 06:29:11;;;;;;;4.97;2.95;;;14.70;99.90;;;;;;5010153;28;20458;-48
2023/07/27 06:31:37;;;;;;;8.05;2.83;;;14.70;99.90;;;;;;5005604;28;20030;-49
2023/07/27 06:34:02;;;;;;;6.93;2.97;;;14.70;99.90;;;;;;4998560;28;20190;-51
2023/07/27 06:36:28;;;;;;;6.70;2.85;;;14.80;99.90;;;;;;5000723;28;20022;-48
2023/07/27 06:38:53;;;;;;;4.65;2.78;;;14.80;99.90;;;;;;5003063;28;20064;-54
2023/07/27 06:41:24;;;;;;;5.18;3.10;;;14.80;99.90;;;;;;5003681;28;20540;-50
2023/07/27 06:43:50;;;;;;;8.20;3.67;;;14.70;99.90;;;;;;5001631;28;20023;-50
2023/07/27 06:46:16;;;;;;;6.40;3.60;;;14.80;99.90;;;;;;5004433;28;20394;-52
2023/07/27 06:48:42;;;;;;;7.10;3.40;;;14.80;99.90;;;;;;4998842;28;20026;-51
2023/07/27 06:51:07;;;;;;;9.07;4.22;;;14.80;99.90;;;;;;5006907;28;20034;-50
2023/07/27 06:53:33;;;;;;;6.13;2.92;;;14.80;99.90;;;;;;4996975;28;20030;-54
2023/07/27 06:55:58;;;;;;;6.35;4.03;;;14.80;99.90;;;;;;5010821;28;20058;-54
2023/07/27 06:58:24;;;;;;;6.72;3.78;;;14.80;99.90;;;;;;4999248;28;20034;-53
2023/07/27 07:00:52;;;;;;;5.50;3.60;;;14.80;99.90;;;;;;4995198;28;20069;-52
2023/07/27 07:03:18;;;;;;;8.32;3.92;;;14.80;99.90;;;;;;5008168;28;20061;-52
2023/07/27 07:05:45;;;;;;;5.38;3.22;;;14.90;99.90;;;;;;5006378;28;20048;-51
2023/07/27 07:08:11;;;;;;;6.57;3.50;;;14.90;99.90;;;;;;4996568;28;20022;-53
2023/07/27 07:10:36;;;;;;;5.53;3.50;;;15.00;99.90;;;;;;4997719;28;20037;-52
2023/07/27 07:13:03;;;;;;;4.97;3.03;;;15.00;99.90;;;;;;5012481;28;20026;-50
2023/07/27 07:15:28;;;;;;;5.47;3.08;;;15.00;99.90;;;;;;5009607;28;20033;-53
2023/07/27 07:17:54;;;;;;;5.93;3.38;;;15.00;99.90;;;;;;5010257;28;20045;-54
2023/07/27 07:20:20;;;;;;;5.35;3.42;;;15.00;99.90;;;;;;5015360;28;20029;-52
2023/07/27 07:22:46;;;;;;;7.78;3.67;;;15.10;99.90;;;;;;5013132;28;20042;-54
2023/07/27 07:25:11;;;;;;;6.47;3.28;;;15.10;99.90;;;;;;5002650;28;20053;-51
2023/07/27 07:27:37;;;;;;;4.63;2.72;;;15.20;99.90;;;;;;5007155;28;20447;-49
2023/07/27 07:30:04;;;;;;;5.80;3.15;;;15.20;99.90;;;;;;4997962;28;20121;-52
2023/07/27 07:32:31;;;;;;;7.05;3.40;;;15.20;99.90;;;;;;5001368;28;20053;-54
2023/07/27 07:34:57;;;;;;;5.78;3.10;;;15.30;99.90;;;;;;5004930;28;20042;-53
2023/07/27 07:37:23;;;;;;;5.32;2.78;;;15.30;99.90;;;;;;4998265;28;20451;-50
2023/07/27 07:39:49;;;;;;;7.57;3.50;;;15.30;99.90;;;;;;4996322;28;20080;-49
2023/07/27 07:42:14;;;;;;;6.25;2.88;;;15.30;99.90;;;;;;5010085;28;20022;-52
2023/07/27 07:44:40;;;;;;;5.45;2.67;;;15.40;99.90;;;;;;5002879;28;20450;-53
2023/07/27 07:47:06;;;;;;;5.68;3.28;;;15.40;99.90;;;;;;5003524;28;20038;-53
2023/07/27 07:49:31;;;;;;;5.70;3.40;;;15.40;99.90;;;;;;5004095;28;20022;-53
2023/07/27 07:51:57;;;;;;;6.40;3.00;;;15.40;99.90;;;;;;5000735;28;20451;-50
2023/07/27 07:54:22;;;;;;;7.25;3.53;;;15.50;99.90;;;;;;4997348;28;20132;-48
2023/07/27 07:56:48;;;;;;;20.60;10.85;;;15.50;99.90;;;;;;4993319;28;20045;-52
2023/07/27 07:59:16;;;;;;;7.65;3.70;;;15.50;99.90;;;;;;4994196;28;20018;-53
2023/07/27 08:01:42;;;;;;;4.93;2.60;;;15.60;99.90;;;;;;4999150;28;20129;-52
2023/07/27 08:04:08;;;;;;;5.63;2.92;;;15.60;99.90;;;;;;4994509;28;20076;-51
2023/07/27 08:06:33;;;;;;;4.65;2.22;;;15.70;99.90;;;;;;4991953;28;20398;-52
2023/07/27 08:08:59;;;;;;;4.88;2.60;;;15.70;99.90;;;;;;4995573;28;20420;-53
2023/07/27 08:11:25;;;;;;;6.70;3.50;;;15.70;99.90;;;;;;4995827;28;20037;-53
2023/07/27 08:13:52;;;;;;;4.40;2.58;;;15.70;99.90;;;;;;4990411;28;20418;-51
2023/07/27 08:16:18;;;;;;;3.47;2.15;;;15.70;99.90;;;;;;4991258;28;20026;-52
2023/07/27 08:18:44;;;;;;;5.88;3.10;;;15.80;99.90;;;;;;4996201;28;20034;-51
2023/07/27 08:21:10;;;;;;;5.20;3.00;;;15.80;99.90;;;;;;4995671;28;20105;-54
2023/07/27 08:23:36;;;;;;;5.07;2.17;;;15.80;99.90;;;;;;4989717;28;20022;-53
2023/07/27 08:26:06;;;;;;;4.88;2.10;;;15.80;99.90;;;;;;4994479;28;20042;-54
2023/07/27 08:28:32;;;;;;;3.25;2.08;;;15.90;99.90;;;;;;4993743;28;20186;-52
2023/07/27 08:30:57;;;;;;;5.03;2.20;;;15.90;99.90;;;;;;4991810;28;20029;-50
2023/07/27 08:33:23;;;;;;;3.70;2.10;;;15.90;99.90;;;;;;4994933;28;20022;-52
2023/07/27 08:35:49;;;;;;;4.88;2.33;;;16.00;99.90;;;;;;4992586;28;20038;-53
2023/07/27 08:38:15;;;;;;;4.43;2.53;;;16.00;99.90;;;;;;4991682;28;20026;-52
2023/07/27 08:40:40;;;;;;;4.22;2.42;;;16.00;99.90;;;;;;4995014;28;20101;-54
2023/07/27 08:43:08;;;;;;;2.03;1.30;;;16.10;99.90;;;;;;4994246;28;20030;-49
2023/07/27 08:45:35;;;;;;;3.33;2.20;;;16.10;99.90;;;;;;4993369;28;20058;-50
2023/07/27 08:48:03;;;;;;;3.95;2.22;;;16.20;99.90;;;;;;4993761;28;20129;-52
2023/07/27 08:50:29;;;;;;;2.70;1.35;;;16.20;99.90;;;;;;4991723;28;20038;-54
2023/07/27 08:52:55;;;;;;;2.85;1.77;;;16.20;99.90;;;;;;4990243;28;20185;-53
2023/07/27 08:55:21;;;;;;;3.00;1.50;;;16.20;99.90;;;;;;4992569;28;20034;-52
2023/07/27 08:57:46;;;;;;;3.30;1.55;;;16.20;99.90;;;;;;4992698;28;20045;-53
2023/07/27 09:00:13;;;;;;;5.13;2.17;;;16.20;99.90;;;;;;4991846;28;20054;-50
2023/07/27 09:02:41;;;;;;;3.42;2.15;;;16.30;99.90;;;;;;4994089;28;20030;-52
2023/07/27 09:05:09;;;;;;;3.03;1.60;;;16.30;99.90;;;;;;4991484;28;20030;-54
2023/07/27 09:07:34;;;;;;;2.85;1.45;;;16.40;99.90;;;;;;4998842;28;20403;-54
2023/07/27 09:10:09;;;;;;;3.80;1.73;;;16.40;99.90;;;;;;5001146;28;20018;-53
2023/07/27 09:12:35;;;;;;;2.75;1.65;;;16.40;99.90;;;;;;5000091;28;20082;-52
2023/07/27 09:15:08;;;;;;;2.75;1.40;;;16.40;99.90;;;;;;4998450;28;20037;-53
2023/07/27 09:17:34;;;;;;;3.30;1.20;;;16.40;99.90;;;;;;5001992;28;20038;-53
2023/07/27 09:19:59;;;;;;;3.95;1.75;;;16.40;99.90;;;;;;5004519;28;20031;-54
2023/07/27 09:22:25;;;;;;;2.83;1.38;;;16.40;99.90;;;;;;4996579;28;20129;-54
2023/07/27 09:24:56;;;;;;;2.67;1.40;;;16.50;99.90;;;;;;5000486;28;20064;-54
2023/07/27 09:27:21;;;;;;;3.33;1.45;;;16.50;99.90;;;;;;5001910;28;20383;-53
2023/07/27 09:29:56;;;;;;;2.50;1.60;;;16.50;99.90;;;;;;5003816;28;20087;-55
2023/07/27 09:32:22;;;;;;;2.50;1.63;;;16.50;99.90;;;;;;5003067;28;20022;-51
2023/07/27 09:34:54;;;;;;;4.35;1.60;;;16.60;99.90;;;;;;5011929;28;20044;-51
2023/07/27 09:37:21;;;;;;;4.05;1.98;;;16.60;99.90;;;;;;5008311;28;20030;-51
2023/07/27 09:39:47;;;;;;;3.45;1.90;;;16.60;99.90;;;;;;5007671;28;20451;-53
2023/07/27 09:42:14;;;;;;;5.45;2.92;;;16.60;99.90;;;;;;4998984;28;20037;-51
2023/07/27 09:44:52;;;;;;;5.65;2.55;;;16.70;99.90;;;;;;5000019;28;20057;-53
2023/07/27 09:47:20;;;;;;;5.25;3.25;;;16.80;99.90;;;;;;5000516;28;20038;-54
2023/07/27 09:49:49;;;;;;;7.63;3.90;;;16.80;99.90;;;;;;5000426;28;20026;-52
2023/07/27 09:52:17;;;;;;;5.38;3.20;;;16.90;99.90;;;;;;4995732;28;20030;-53
2023/07/27 09:54:46;;;;;;;7.28;3.63;;;16.90;99.90;;;;;;5000216;28;20085;-54
2023/07/27 09:57:12;;;;;;;6.88;4.07;;;17.00;99.90;;;;;;5008636;28;20026;-53
2023/07/27 09:59:38;;;;;;;7.28;4.03;;;17.00;99.90;;;;;;5001144;28;20034;-53
2023/07/27 10:02:03;;;;;;;8.10;4.20;;;17.00;99.90;;;;;;4997884;28;20390;-52
2023/07/27 10:04:29;;;;;;;5.25;3.15;;;17.10;99.90;;;;;;5003077;28;20125;-53
2023/07/27 10:06:55;;;;;;;6.13;3.70;;;17.00;99.90;;;;;;5004079;28;20026;-51
2023/07/27 10:09:22;;;;;;;6.72;4.03;;;17.00;99.90;;;;;;5007774;28;20031;-50
2023/07/27 10:11:59;;;;;;;6.97;3.88;;;17.10;99.90;;;;;;4996125;28;20030;-51
2023/07/27 10:14:26;;;;;;;7.72;4.75;;;17.10;99.90;;;;;;4989185;28;20026;-51
2023/07/27 10:17:07;;;;;;;8.85;5.15;;;17.20;99.90;;;;;;5009076;28;20044;-52
2023/07/27 10:19:41;;;;;;;6.75;4.60;;;17.20;99.90;;;;;;5003277;28;20277;-50
2023/07/27 10:22:10;;;;;;;6.93;3.80;;;17.20;99.90;;;;;;5006904;28;20029;-53
2023/07/27 10:24:45;;;;;;;;;;;17.20;99.90;;;;;;4992171;28;20041;-50
2023/07/27 10:27:11;;;;;;;4.60;2.40;;;17.20;99.90;;;;;;5011771;28;20314;-53
2023/07/27 10:29:36;;;;;;;4.80;2.50;;;17.20;99.90;;;;;;5006086;28;20114;-51
2023/07/27 10:32:06;;;;;;;6.35;3.38;;;17.20;99.90;;;;;;4999878;28;20042;-48
2023/07/27 10:34:34;;;;;;;22.25;12.85;;;17.30;99.90;;;;;;5006781;28;20033;-51
2023/07/27 10:37:03;;;;;;;14.57;8.55;;;17.30;99.90;;;;;;4991090;28;20088;-53
2023/07/27 10:39:34;;;;;;;17.35;9.38;;;17.40;99.90;;;;;;4996727;28;20110;-52
2023/07/27 10:42:12;;;;;;;8.07;4.28;;;17.50;99.90;;;;;;5010560;28;20494;-49
2023/07/27 10:44:57;;;;;;;7.53;4.13;;;17.50;99.90;;;;;;4998870;28;20048;-52
2023/07/27 10:47:38;;;;;;;8.23;5.13;;;17.50;99.90;;;;;;5003503;28;20033;-51
2023/07/27 10:50:05;;;;;;;6.65;3.70;;;17.60;99.90;;;;;;5006841;28;20130;-50
2023/07/27 10:52:39;;;;;;;5.47;3.60;;;17.60;99.90;;;;;;4999409;28;20061;-52
2023/07/27 10:55:08;;;;;;;6.68;3.67;;;17.50;99.90;;;;;;5003588;28;20543;-49
2023/07/27 10:57:34;;;;;;;5.70;3.42;;;17.60;99.90;;;;;;5002717;28;20042;-48
2023/07/27 11:00:01;;;;;;;8.07;4.78;;;17.50;99.90;;;;;;4995927;28;20050;-51
2023/07/27 11:02:29;;;;;;;7.63;5.00;;;17.60;99.90;;;;;;4997412;28;20030;-49
2023/07/27 11:05:00;;;;;;;10.32;5.63;;;17.60;99.90;;;;;;5002463;28;20022;-52
2023/07/27 11:07:36;;;;;;;9.30;5.45;;;17.60;99.90;;;;;;5007805;28;20018;-50
2023/07/27 11:10:10;;;;;;;7.88;4.75;;;17.70;99.90;;;;;;5003257;28;20145;-51
2023/07/27 11:12:50;;;;;;;9.88;5.20;;;17.70;99.90;;;;;;5005422;28;20033;-50
2023/07/27 11:15:24;;;;;;;8.93;5.03;;;17.70;99.90;;;;;;4994354;28;20458;-52
2023/07/27 11:17:51;;;;;;;8.90;5.15;;;17.70;99.90;;;;;;5011736;28;20037;-50
2023/07/27 11:20:20;;;;;;;10.10;5.05;;;17.80;99.90;;;;;;5004744;28;20109;-51
2023/07/27 11:22:50;;;;;;;7.07;4.53;;;17.70;99.90;;;;;;5012523;28;20033;-53
2023/07/27 11:25:16;;;;;;;5.18;3.10;;;17.70;99.90;;;;;;4998384;28;20038;-53
2023/07/27 11:27:42;;;;;;;5.72;3.20;;;17.70;99.90;;;;;;5011842;23;20539;-48
2023/07/27 11:30:12;;;;;;;5.43;3.15;;;17.80;99.90;;;;;;4976582;28;20129;-48
2023/07/27 11:32:38;;;;;;;7.57;3.15;;;17.90;99.90;;;;;;4986558;28;20415;-48
2023/07/27 11:35:04;;;;;;;4.88;3.15;;;17.90;99.90;;;;;;4987580;28;20026;-48
2023/07/27 11:37:31;;;;;;;6.38;2.80;;;18.00;99.90;;;;;;4989281;28;20023;-49
2023/07/27 11:39:57;;;;;;;4.15;2.90;;;18.10;99.90;;;;;;4975371;28;20657;-51
2023/07/27 11:42:38;;;;;;;6.07;3.13;;;18.10;99.90;;;;;;4988354;28;20029;-48
2023/07/27 11:45:03;;;;;;;5.15;2.53;;;18.10;99.90;;;;;;4983904;28;20049;-49
2023/07/27 11:47:37;;;;;;;3.72;2.20;;;18.10;99.90;;;;;;4976666;28;20133;-49
2023/07/27 11:50:06;;;;;;;3.47;2.08;;;18.10;99.90;;;;;;4979214;28;20034;-50
2023/07/27 11:52:33;;;;;;;3.30;2.45;;;18.10;99.90;;;;;;4972254;28;20014;-49
2023/07/27 11:55:01;;;;;;;4.07;2.05;;;18.10;99.90;;;;;;4986868;28;20526;-48
2023/07/27 11:57:27;;;;;;;3.00;1.80;;;18.10;99.90;;;;;;4986909;28;20037;-48
2023/07/27 12:00:13;;;;;;;2.90;1.90;;;18.20;99.90;;;;;;4991945;28;20038;-48
2023/07/27 12:02:46;;;;;;;3.33;1.60;;;18.20;99.90;;;;;;4983957;28;20065;-51
2023/07/27 12:05:13;;;;;;;2.58;1.58;;;18.40;99.90;;;;;;4977624;28;20034;-49
2023/07/27 12:07:40;;;;;;;2.03;1.30;;;18.40;99.90;;;;;;4981315;28;20027;-48
2023/07/27 12:10:10;;;;;;;2.95;1.70;;;18.60;99.90;;;;;;4980992;28;20069;-49
2023/07/27 12:12:47;;;;;;;2.47;1.50;;;18.70;99.90;;;;;;4985480;28;20076;-53
2023/07/27 12:15:30;;;;;;;2.15;1.58;;;18.80;99.90;;;;;;4977098;28;20066;-52
2023/07/27 12:17:58;;;;;;;3.25;1.48;;;18.90;99.90;;;;;;4981862;28;20037;-49
2023/07/27 12:20:29;;;;;;;2.80;1.30;;;18.80;99.90;;;;;;4983326;28;20034;-48
2023/07/27 12:22:56;;;;;;;2.10;1.30;;;18.80;99.90;;;;;;4979999;28;20480;-49
2023/07/27 12:25:21;;;;;;;2.33;1.23;;;18.80;99.90;;;;;;4978388;28;20455;-48
2023/07/27 12:27:47;;;;;;;2.70;1.70;;;18.70;99.90;;;;;;4991209;28;20061;-50
2023/07/27 12:30:12;;;;;;;3.53;1.42;;;18.60;99.90;;;;;;4990991;28;20026;-51
2023/07/27 12:32:38;;;;;;;1.58;0.85;;;18.70;99.90;;;;;;4982815;28;20049;-50
2023/07/27 12:35:05;;;;;;;1.58;1.10;;;18.50;99.90;;;;;;4980758;28;20135;-52
2023/07/27 12:37:31;;;;;;;1.95;1.20;;;18.50;99.90;;;;;;4985495;28;20038;-50
2023/07/27 12:39:56;;;;;;;1.95;1.30;;;18.40;99.90;;;;;;4974357;28;20504;-49
2023/07/27 12:42:22;;;;;;;24.92;11.05;;;18.30;99.90;;;;;;4982484;28;20030;-49
2023/07/27 12:44:48;;;;;;;17.45;9.40;;;18.40;99.90;;;;;;4980097;28;20044;-51
2023/07/27 12:47:14;;;;;;;11.07;6.32;;;18.50;99.90;;;;;;4977362;28;20022;-50